Weather at Trosa Troslanda airfield

Public forecast

Using degrees Celsius for public forecast. Weather courtesy of forecast.io.

Closest aviation weather report (METAR) to Trosa Troslanda airfield

Closest report is Stockholm Skavsta Airport, 19.4 nm (35.9 km) WSW. Retrieved 2022/01/17 15:20 UTC (36 minutes ago):

ESKN 171520Z 29007KT CAVOK M00/M07 Q1013

Closest aviation forecast (TAF) to Trosa Troslanda airfield

Closest forecast is Stockholm Skavsta Airport, 19.4 nm (35.9 km) WSW. Retrieved 2022/01/17 12:00 UTC (4 hours ago):

TAF ESKN 171130Z 1712/1812 32015G25KT CAVOK BECMG 1713/1715 28010KT BECMG 1806/1808 22008KT